createdAt,value
2018-04-28T00:00:37.491Z,4.00
2018-04-28T00:01:37.512Z,4.00
2018-04-28T00:02:37.521Z,4.00
2018-04-28T00:03:37.542Z,4.00
2018-04-28T00:04:37.560Z,4.00
2018-04-28T00:05:37.571Z,4.00
2018-04-28T00:06:37.585Z,4.00
2018-04-28T00:07:37.602Z,4.00
2018-04-28T00:08:37.614Z,4.00
2018-04-28T00:09:37.633Z,4.00
2018-04-28T00:10:37.647Z,4.00
2018-04-28T00:11:37.673Z,4.00
2018-04-28T00:12:37.687Z,4.00
2018-04-28T00:13:37.696Z,4.00
2018-04-28T00:14:37.710Z,4.00
2018-04-28T00:15:37.756Z,4.00
2018-04-28T00:16:37.742Z,4.00
2018-04-28T00:17:37.760Z,4.00
2018-04-28T00:18:37.775Z,4.00
2018-04-28T00:19:37.791Z,4.00
2018-04-28T00:20:37.804Z,4.00
2018-04-28T00:21:37.820Z,4.00
2018-04-28T00:22:37.837Z,4.00
2018-04-28T00:23:37.851Z,4.00
2018-04-28T00:24:37.870Z,4.00
2018-04-28T00:25:37.884Z,4.00
2018-04-28T00:26:37.899Z,4.00
2018-04-28T00:27:37.917Z,4.00
2018-04-28T00:28:37.934Z,4.00
2018-04-28T00:29:37.947Z,4.00
2018-04-28T00:30:37.959Z,4.00
2018-04-28T00:31:37.976Z,4.00
2018-04-28T00:32:37.995Z,4.00
2018-04-28T00:33:38.013Z,4.00
2018-04-28T00:34:38.042Z,4.00
2018-04-28T00:35:38.044Z,4.00
2018-04-28T00:36:38.056Z,4.00
2018-04-28T00:37:38.074Z,4.00
2018-04-28T00:38:38.107Z,4.00
2018-04-28T00:39:38.106Z,4.00
2018-04-28T00:40:38.123Z,4.00
2018-04-28T00:41:38.138Z,4.00
2018-04-28T00:42:38.148Z,4.00
2018-04-28T00:43:38.193Z,4.00
2018-04-28T00:44:38.181Z,4.00
2018-04-28T00:45:38.198Z,4.00
2018-04-28T00:46:38.235Z,4.00
2018-04-28T00:47:38.226Z,4.00
2018-04-28T00:48:38.277Z,4.00
2018-04-28T00:49:38.262Z,4.00
2018-04-28T00:50:38.279Z,4.00
2018-04-28T00:51:38.295Z,4.00
2018-04-28T00:52:38.306Z,4.00
2018-04-28T00:53:38.323Z,4.00
2018-04-28T00:54:38.336Z,4.00
2018-04-28T00:55:38.355Z,4.00
2018-04-28T00:56:38.375Z,4.00
2018-04-28T00:57:38.389Z,4.00
2018-04-28T00:58:38.409Z,4.00
2018-04-28T00:59:38.416Z,4.00
2018-04-28T01:00:38.430Z,4.00
2018-04-28T01:01:38.447Z,4.00
2018-04-28T01:02:38.454Z,4.00
2018-04-28T01:03:38.477Z,4.00
2018-04-28T01:04:38.486Z,4.00
2018-04-28T01:05:38.503Z,4.00
2018-04-28T01:06:38.518Z,4.00
2018-04-28T01:07:38.535Z,4.00
2018-04-28T01:08:38.550Z,4.00
2018-04-28T01:09:38.568Z,4.00
2018-04-28T01:10:38.589Z,4.00
2018-04-28T01:11:38.603Z,4.00
2018-04-28T01:12:38.612Z,4.00
2018-04-28T01:13:38.630Z,4.00
2018-04-28T01:14:38.646Z,4.00
2018-04-28T01:15:38.659Z,4.00
2018-04-28T01:16:38.674Z,4.00
2018-04-28T01:17:38.721Z,4.00
2018-04-28T01:18:38.721Z,4.00
2018-04-28T01:19:38.721Z,4.00
2018-04-28T01:20:38.738Z,4.00
2018-04-28T01:21:38.755Z,4.00
2018-04-28T01:22:38.768Z,4.00
2018-04-28T01:23:38.785Z,4.00
2018-04-28T01:24:38.801Z,4.00
2018-04-28T01:25:38.818Z,4.00
2018-04-28T01:26:38.839Z,4.00
2018-04-28T01:27:38.848Z,4.00
2018-04-28T01:28:38.863Z,4.00
2018-04-28T01:29:38.879Z,4.00
2018-04-28T01:30:38.894Z,4.00
2018-04-28T01:31:38.912Z,4.00
2018-04-28T01:32:38.928Z,4.00
2018-04-28T01:33:38.952Z,4.00
2018-04-28T01:34:38.956Z,4.00
2018-04-28T01:35:38.976Z,4.00
2018-04-28T01:36:38.987Z,4.00
2018-04-28T01:37:39.004Z,4.00
2018-04-28T01:38:39.025Z,4.00
2018-04-28T01:39:39.045Z,4.00
2018-04-28T01:40:39.049Z,4.00
2018-04-28T01:41:39.075Z,4.00
2018-04-28T01:42:39.098Z,4.00
2018-04-28T01:43:39.111Z,4.00
2018-04-28T01:44:39.153Z,4.00
2018-04-28T01:45:39.131Z,4.00
2018-04-28T01:46:39.148Z,4.00
2018-04-28T01:47:39.160Z,4.00
2018-04-28T01:48:39.180Z,4.00
2018-04-28T01:49:39.230Z,4.00
2018-04-28T01:50:39.207Z,4.00
2018-04-28T01:51:39.228Z,4.00
2018-04-28T01:52:39.241Z,4.00
2018-04-28T01:53:39.369Z,4.00
2018-04-28T01:54:39.269Z,4.00
2018-04-28T01:55:39.288Z,4.00
2018-04-28T01:56:39.301Z,4.00
2018-04-28T01:57:39.319Z,4.00
2018-04-28T01:58:39.334Z,4.00
2018-04-28T01:59:39.347Z,4.00
2018-04-28T02:00:39.363Z,4.00
2018-04-28T02:01:39.379Z,4.00
2018-04-28T02:02:39.395Z,4.00
2018-04-28T02:03:39.409Z,4.00
2018-04-28T02:04:39.425Z,4.00
2018-04-28T02:05:39.447Z,4.00
2018-04-28T02:06:39.456Z,4.00
2018-04-28T02:07:39.473Z,4.00
2018-04-28T02:08:39.489Z,4.00
2018-04-28T02:09:39.505Z,4.00
2018-04-28T02:10:39.519Z,4.00
2018-04-28T02:11:39.541Z,4.00
2018-04-28T02:12:39.551Z,4.00
2018-04-28T02:13:39.581Z,4.00
2018-04-28T02:14:39.585Z,4.00
2018-04-28T02:15:39.601Z,4.00
2018-04-28T02:16:39.614Z,4.00
2018-04-28T02:17:39.639Z,4.00
2018-04-28T02:18:39.666Z,4.00
2018-04-28T02:19:39.661Z,4.00
2018-04-28T02:20:39.678Z,4.00
2018-04-28T02:21:39.730Z,4.00
2018-04-28T02:22:39.710Z,4.00
2018-04-28T02:23:39.723Z,4.00
2018-04-28T02:24:39.748Z,4.00
2018-04-28T02:25:39.756Z,4.00
2018-04-28T02:26:39.772Z,4.00
2018-04-28T02:27:39.788Z,4.00
2018-04-28T02:28:39.811Z,4.00
2018-04-28T02:29:39.822Z,4.00
2018-04-28T02:30:39.835Z,4.00
2018-04-28T02:31:39.854Z,4.00
2018-04-28T02:32:39.864Z,4.00
2018-04-28T02:33:39.880Z,4.00
2018-04-28T02:34:39.901Z,4.00
2018-04-28T02:35:39.915Z,4.00
2018-04-28T02:36:39.929Z,4.00
2018-04-28T02:37:39.951Z,4.00
2018-04-28T02:38:39.956Z,4.00
2018-04-28T02:39:39.974Z,4.00
2018-04-28T02:40:39.990Z,4.00
2018-04-28T02:41:40.064Z,4.00
2018-04-28T02:42:40.029Z,4.00
2018-04-28T02:43:40.037Z,4.00
2018-04-28T02:44:40.064Z,4.00
2018-04-28T02:45:40.066Z,4.00
2018-04-28T02:46:40.085Z,4.00
2018-04-28T02:47:40.106Z,4.00
2018-04-28T02:48:40.117Z,4.00
2018-04-28T02:49:40.132Z,4.00
2018-04-28T02:50:40.154Z,4.00
2018-04-28T02:51:40.171Z,4.00
2018-04-28T02:52:40.185Z,4.00
2018-04-28T02:53:40.192Z,4.00
2018-04-28T02:54:40.247Z,4.00
2018-04-28T02:55:40.225Z,4.00
2018-04-28T02:56:40.247Z,4.00
2018-04-28T02:57:40.255Z,4.00
2018-04-28T02:58:40.270Z,4.00
2018-04-28T02:59:40.290Z,4.00
2018-04-28T03:00:40.306Z,4.00
2018-04-28T03:01:40.316Z,4.00
2018-04-28T03:02:40.331Z,4.00
2018-04-28T03:03:40.354Z,4.00
2018-04-28T03:04:40.364Z,4.00
2018-04-28T03:05:40.382Z,4.00
2018-04-28T03:06:40.398Z,4.00
2018-04-28T03:07:40.411Z,4.00
2018-04-28T03:08:40.430Z,4.00
2018-04-28T03:09:40.441Z,4.00
2018-04-28T03:10:40.456Z,4.00
2018-04-28T03:11:40.474Z,4.00
2018-04-28T03:12:40.486Z,4.00
2018-04-28T03:13:40.505Z,4.00
2018-04-28T03:14:40.519Z,4.00
2018-04-28T03:15:40.535Z,4.00
2018-04-28T03:16:40.549Z,4.00
2018-04-28T03:17:40.567Z,4.00
2018-04-28T03:18:40.636Z,4.00
2018-04-28T03:19:40.597Z,4.00
2018-04-28T03:20:40.615Z,4.00
2018-04-28T03:21:40.626Z,4.00
2018-04-28T03:22:40.642Z,4.00
2018-04-28T03:23:40.655Z,4.00
2018-04-28T03:24:40.673Z,4.00
2018-04-28T03:25:40.692Z,4.00
2018-04-28T03:26:40.710Z,4.00
2018-04-28T03:27:40.719Z,4.00
2018-04-28T03:28:40.735Z,4.00
2018-04-28T03:29:40.755Z,4.00
2018-04-28T03:30:40.776Z,4.00
2018-04-28T03:31:40.788Z,4.00
2018-04-28T03:32:40.804Z,4.00
2018-04-28T03:33:40.821Z,4.00
2018-04-28T03:34:40.827Z,0.00
2018-04-28T03:35:40.843Z,4.00
2018-04-28T03:36:40.858Z,4.00
2018-04-28T03:37:40.876Z,4.00
2018-04-28T03:38:40.889Z,4.00
2018-04-28T03:39:40.909Z,4.00
2018-04-28T03:40:40.922Z,4.00
2018-04-28T03:41:40.995Z,4.00
2018-04-28T03:42:40.960Z,4.00
2018-04-28T03:43:40.975Z,4.00
2018-04-28T03:44:40.983Z,8.00
2018-04-28T03:45:40.999Z,8.00
2018-04-28T03:46:41.019Z,8.00
2018-04-28T03:47:41.036Z,8.00
2018-04-28T03:48:41.045Z,8.00
2018-04-28T03:49:41.067Z,8.00
2018-04-28T03:50:41.168Z,12.00
2018-04-28T03:51:41.094Z,12.00
2018-04-28T03:52:41.116Z,12.00
2018-04-28T03:53:41.124Z,12.00
2018-04-28T03:54:41.138Z,12.00
2018-04-28T03:55:41.154Z,16.00
2018-04-28T03:56:41.173Z,20.00
2018-04-28T03:57:41.206Z,20.00
2018-04-28T03:58:41.210Z,24.00
2018-04-28T03:59:41.217Z,28.00
2018-04-28T04:00:41.285Z,28.00
2018-04-28T04:01:41.249Z,36.00
2018-04-28T04:02:41.263Z,36.00
2018-04-28T04:03:41.278Z,44.00
2018-04-28T04:04:41.296Z,48.00
2018-04-28T04:05:41.312Z,52.00
2018-04-28T04:06:41.347Z,56.00
2018-04-28T04:07:41.365Z,60.00
2018-04-28T04:08:41.358Z,64.00
2018-04-28T04:09:41.369Z,68.00
2018-04-28T04:10:41.404Z,76.00
2018-04-28T04:11:41.403Z,80.00
2018-04-28T04:12:41.419Z,84.00
2018-04-28T04:13:41.431Z,92.00
2018-04-28T04:14:41.454Z,100.00
2018-04-28T04:15:41.467Z,108.00
2018-04-28T04:16:41.479Z,112.00
2018-04-28T04:17:41.504Z,124.00
2018-04-28T04:18:41.510Z,132.00
2018-04-28T04:19:41.529Z,140.00
2018-04-28T04:20:41.540Z,152.00
2018-04-28T04:21:41.558Z,164.00
2018-04-28T04:22:41.573Z,176.00
2018-04-28T04:23:41.586Z,188.00
2018-04-28T04:24:41.604Z,200.00
2018-04-28T04:25:41.618Z,216.00
2018-04-28T04:26:41.637Z,232.00
2018-04-28T04:27:41.649Z,244.00
2018-04-28T04:28:41.666Z,260.00
2018-04-28T04:29:41.685Z,276.00
2018-04-28T04:30:41.694Z,292.00
2018-04-28T04:31:41.737Z,312.00
2018-04-28T04:32:41.728Z,332.00
2018-04-28T04:33:41.743Z,356.00
2018-04-28T04:34:41.757Z,376.00
2018-04-28T04:35:41.780Z,400.00
2018-04-28T04:36:41.789Z,416.00
2018-04-28T04:37:41.863Z,432.00
2018-04-28T04:38:41.827Z,448.00
2018-04-28T04:39:41.839Z,464.00
2018-04-28T04:40:41.852Z,476.00
2018-04-28T04:41:41.868Z,492.00
2018-04-28T04:42:41.889Z,500.00
2018-04-28T04:43:41.896Z,504.00
2018-04-28T04:44:41.912Z,516.00
2018-04-28T04:45:41.929Z,524.00
2018-04-28T04:46:41.957Z,536.00
2018-04-28T04:47:41.960Z,552.00
2018-04-28T04:48:41.975Z,572.00
2018-04-28T04:49:41.991Z,596.00
2018-04-28T04:50:42.016Z,624.00
2018-04-28T04:51:42.025Z,648.00
2018-04-28T04:52:42.049Z,684.00
2018-04-28T04:53:42.053Z,708.00
2018-04-28T04:54:42.074Z,720.00
2018-04-28T04:55:42.107Z,732.00
2018-04-28T04:56:42.099Z,744.00
2018-04-28T04:57:42.157Z,764.00
2018-04-28T04:58:42.138Z,772.00
2018-04-28T04:59:42.151Z,772.00
2018-04-28T05:00:42.167Z,776.00
2018-04-28T05:01:42.179Z,784.00
2018-04-28T05:02:42.195Z,788.00
2018-04-28T05:03:42.208Z,796.00
2018-04-28T05:04:42.229Z,828.00
2018-04-28T05:05:42.258Z,852.00
2018-04-28T05:06:42.250Z,864.00
2018-04-28T05:07:42.271Z,892.00
2018-04-28T05:08:42.283Z,904.00
2018-04-28T05:09:42.296Z,912.00
2018-04-28T05:10:42.314Z,928.00
2018-04-28T05:11:42.328Z,956.00
2018-04-28T05:12:42.488Z,968.00
2018-04-28T05:13:42.369Z,1000.00
2018-04-28T05:14:42.375Z,1028.00
2018-04-28T05:15:42.402Z,1056.00
2018-04-28T05:16:42.406Z,1080.00
2018-04-28T05:17:42.423Z,1108.00
2018-04-28T05:18:42.438Z,1148.00
2018-04-28T05:19:42.452Z,1180.00
2018-04-28T05:20:42.469Z,1212.00
2018-04-28T05:21:42.485Z,1244.00
2018-04-28T05:22:42.504Z,1220.00
2018-04-28T05:23:42.518Z,1300.00
2018-04-28T05:24:42.531Z,1328.00
2018-04-28T05:25:42.553Z,1344.00
2018-04-28T05:26:42.568Z,1372.00
2018-04-28T05:27:42.581Z,1424.00
2018-04-28T05:28:42.595Z,1472.00
2018-04-28T05:29:42.611Z,1516.00
2018-04-28T05:30:42.628Z,1572.00
2018-04-28T05:31:42.643Z,1688.00
2018-04-28T05:32:42.660Z,1732.00
2018-04-28T05:33:42.675Z,1700.00
2018-04-28T05:34:42.699Z,1700.00
2018-04-28T05:35:42.709Z,1752.00
2018-04-28T05:36:42.722Z,1772.00
2018-04-28T05:37:42.739Z,1972.00
2018-04-28T05:38:42.756Z,2884.00
2018-04-28T05:39:42.776Z,3748.00
2018-04-28T05:40:42.787Z,4464.00
2018-04-28T05:41:42.801Z,4680.00
2018-04-28T05:42:42.816Z,3628.00
2018-04-28T05:43:42.831Z,3220.00
2018-04-28T05:44:42.850Z,2588.00
2018-04-28T05:45:42.864Z,2092.00
2018-04-28T05:46:42.883Z,1944.00
2018-04-28T05:47:42.900Z,1920.00
2018-04-28T05:48:42.916Z,1972.00
2018-04-28T05:49:42.934Z,2080.00
2018-04-28T05:50:42.949Z,1948.00
2018-04-28T05:51:42.966Z,2100.00
2018-04-28T05:52:42.978Z,1952.00
2018-04-28T05:53:42.995Z,2000.00
2018-04-28T05:54:43.017Z,2000.00
2018-04-28T05:55:43.025Z,2000.00
2018-04-28T05:56:43.044Z,2036.00
2018-04-28T05:57:43.122Z,2020.00
2018-04-28T05:58:43.078Z,1988.00
2018-04-28T05:59:43.106Z,2020.00
2018-04-28T06:00:43.115Z,2000.00
2018-04-28T06:01:43.124Z,1956.00
2018-04-28T06:02:43.139Z,1960.00
2018-04-28T06:03:43.162Z,1936.00
2018-04-28T06:04:43.346Z,1932.00
2018-04-28T06:05:43.827Z,1984.00
2018-04-28T06:06:43.211Z,1992.00
2018-04-28T06:07:43.219Z,1764.00
2018-04-28T06:08:43.236Z,1808.00
2018-04-28T06:09:43.252Z,1972.00
2018-04-28T06:10:43.275Z,2024.00
2018-04-28T06:11:43.286Z,2156.00
2018-04-28T06:12:43.300Z,2212.00
2018-04-28T06:13:43.318Z,2244.00
2018-04-28T06:14:43.338Z,2324.00
2018-04-28T06:15:43.350Z,2424.00
2018-04-28T06:16:43.368Z,2464.00
2018-04-28T06:17:43.385Z,2536.00
2018-04-28T06:18:43.396Z,2472.00
2018-04-28T06:19:43.416Z,2328.00
2018-04-28T06:20:43.430Z,2432.00
2018-04-28T06:21:43.447Z,2480.00
2018-04-28T06:22:43.464Z,2296.00
2018-04-28T06:23:43.479Z,2284.00
2018-04-28T06:24:43.503Z,2196.00
2018-04-28T06:25:43.549Z,2148.00
2018-04-28T06:26:43.528Z,2124.00
2018-04-28T06:27:43.546Z,2100.00
2018-04-28T06:28:43.561Z,2068.00
2018-04-28T06:29:43.576Z,2084.00
2018-04-28T06:30:43.594Z,2096.00
2018-04-28T06:31:43.608Z,2096.00
2018-04-28T06:32:43.628Z,2084.00
2018-04-28T06:33:43.646Z,2064.00
2018-04-28T06:34:43.710Z,2056.00
2018-04-28T06:35:43.722Z,2072.00
2018-04-28T06:36:43.692Z,2072.00
2018-04-28T06:37:43.767Z,2100.00
2018-04-28T06:38:43.733Z,2360.00
2018-04-28T06:39:43.738Z,2188.00
2018-04-28T06:40:43.754Z,2156.00
2018-04-28T06:41:43.778Z,2260.00
2018-04-28T06:42:43.791Z,2728.00
2018-04-28T06:43:43.804Z,2736.00
2018-04-28T06:44:43.834Z,2804.00
2018-04-28T06:45:43.845Z,2848.00
2018-04-28T06:46:43.853Z,2880.00
2018-04-28T06:47:43.869Z,2880.00
2018-04-28T06:48:43.890Z,2816.00
2018-04-28T06:49:43.906Z,2744.00
2018-04-28T06:50:43.928Z,2524.00
2018-04-28T06:51:43.934Z,2472.00
2018-04-28T06:52:43.948Z,2400.00
2018-04-28T06:53:43.998Z,2412.00
2018-04-28T06:54:43.999Z,2760.00
2018-04-28T06:55:44.016Z,2784.00
2018-04-28T06:56:44.018Z,3032.00
2018-04-28T06:57:44.033Z,3080.00
2018-04-28T06:58:44.052Z,3128.00
2018-04-28T06:59:44.066Z,2952.00
2018-04-28T07:00:44.087Z,2936.00
2018-04-28T07:01:44.097Z,2796.00
2018-04-28T07:02:44.113Z,3020.00
2018-04-28T07:03:44.134Z,3212.00
2018-04-28T07:04:44.170Z,3344.00
2018-04-28T07:05:44.166Z,3368.00
2018-04-28T07:06:44.182Z,3384.00
2018-04-28T07:07:44.213Z,3380.00
2018-04-28T07:08:44.215Z,3464.00
2018-04-28T07:09:44.230Z,3508.00
2018-04-28T07:10:44.376Z,3576.00
2018-04-28T07:11:44.263Z,3544.00
2018-04-28T07:12:44.280Z,3484.00
2018-04-28T07:13:44.323Z,3404.00
2018-04-28T07:14:44.325Z,3496.00
2018-04-28T07:15:44.337Z,3296.00
2018-04-28T07:16:44.353Z,3676.00
2018-04-28T07:17:44.365Z,3684.00
2018-04-28T07:18:44.378Z,3692.00
2018-04-28T07:19:44.392Z,3356.00
2018-04-28T07:20:44.417Z,3076.00
2018-04-28T07:21:44.429Z,3332.00
2018-04-28T07:22:44.451Z,3496.00
2018-04-28T07:23:44.461Z,3104.00
2018-04-28T07:24:44.492Z,3168.00
2018-04-28T07:25:44.496Z,3584.00
2018-04-28T07:26:44.510Z,3200.00
2018-04-28T07:27:44.533Z,2836.00
2018-04-28T07:28:44.540Z,2796.00
2018-04-28T07:29:44.578Z,2896.00
2018-04-28T07:30:44.600Z,3716.00
2018-04-28T07:31:44.596Z,3700.00
2018-04-28T07:32:44.611Z,3780.00
2018-04-28T07:33:44.626Z,3828.00
2018-04-28T07:34:44.675Z,3964.00
2018-04-28T07:35:44.658Z,3860.00
2018-04-28T07:36:44.683Z,4168.00
2018-04-28T07:37:44.696Z,3888.00
2018-04-28T07:38:44.707Z,4400.00
2018-04-28T07:39:44.727Z,4632.00
2018-04-28T07:40:44.743Z,4816.00
2018-04-28T07:41:44.765Z,4696.00
2018-04-28T07:42:44.780Z,4560.00
2018-04-28T07:43:44.792Z,4456.00
2018-04-28T07:44:44.807Z,4468.00
2018-04-28T07:45:44.825Z,4160.00
2018-04-28T07:46:44.846Z,3908.00
2018-04-28T07:47:44.862Z,3828.00
2018-04-28T07:48:44.875Z,3716.00
2018-04-28T07:49:44.894Z,3692.00
2018-04-28T07:50:44.916Z,3688.00
2018-04-28T07:51:44.927Z,3580.00
2018-04-28T07:52:44.945Z,3532.00
2018-04-28T07:53:44.968Z,3432.00
2018-04-28T07:54:45.030Z,3388.00
2018-04-28T07:55:44.998Z,3452.00
2018-04-28T07:56:45.015Z,3680.00
2018-04-28T07:57:45.037Z,3784.00
2018-04-28T07:58:45.094Z,4056.00
2018-04-28T07:59:45.070Z,4340.00
2018-04-28T08:00:45.111Z,4368.00
2018-04-28T08:01:45.129Z,3612.00
2018-04-28T08:02:45.115Z,3524.00
2018-04-28T08:03:45.155Z,3464.00
2018-04-28T08:04:45.145Z,3656.00
2018-04-28T08:05:45.166Z,3800.00
2018-04-28T08:06:45.181Z,3500.00
2018-04-28T08:07:45.206Z,3568.00
2018-04-28T08:08:45.216Z,3428.00
2018-04-28T08:09:45.242Z,3428.00
2018-04-28T08:10:45.247Z,3332.00
2018-04-28T08:12:45.284Z,3224.00
2018-04-28T08:13:45.303Z,3324.00
2018-04-28T08:14:45.321Z,3212.00
2018-04-28T08:15:45.342Z,3156.00
2018-04-28T08:17:45.367Z,3004.00
2018-04-28T08:18:45.449Z,2952.00
2018-04-28T08:20:45.447Z,2756.00
2018-04-28T08:21:45.479Z,2700.00
2018-04-28T08:22:45.511Z,2688.00
2018-04-28T08:23:45.472Z,2572.00
2018-04-28T08:24:45.489Z,2492.00
2018-04-28T08:25:45.514Z,2424.00
2018-04-28T08:26:45.525Z,2348.00
2018-04-28T08:27:45.535Z,2356.00
2018-04-28T08:28:45.572Z,2444.00
2018-04-28T08:29:45.590Z,2516.00
2018-04-28T08:30:45.614Z,2580.00
2018-04-28T08:31:45.608Z,2652.00
2018-04-28T08:32:45.630Z,2696.00
2018-04-28T08:33:45.688Z,2656.00
2018-04-28T08:34:45.659Z,2616.00
2018-04-28T08:35:45.683Z,2640.00
2018-04-28T08:36:45.733Z,2684.00
2018-04-28T08:37:45.710Z,2760.00
2018-04-28T08:38:45.745Z,2912.00
2018-04-28T08:39:45.824Z,3028.00
2018-04-28T08:40:45.755Z,3148.00
2018-04-28T08:41:45.778Z,3192.00
2018-04-28T08:42:45.788Z,3264.00
2018-04-28T08:43:45.807Z,3372.00
2018-04-28T08:44:45.876Z,3580.00
2018-04-28T08:45:45.852Z,3740.00
2018-04-28T08:46:45.899Z,3736.00
2018-04-28T08:47:45.947Z,3796.00
2018-04-28T08:48:45.897Z,3888.00
2018-04-28T08:49:45.909Z,3892.00
2018-04-28T08:50:45.927Z,3872.00
2018-04-28T08:51:46.022Z,3744.00
2018-04-28T08:52:46.046Z,3632.00
2018-04-28T08:53:45.977Z,3548.00
2018-04-28T08:54:45.996Z,3584.00
2018-04-28T08:55:46.035Z,3664.00
2018-04-28T08:56:46.181Z,3776.00
2018-04-28T08:57:46.061Z,3992.00
2018-04-28T08:58:46.112Z,4200.00
2018-04-28T08:59:46.152Z,4240.00
2018-04-28T09:00:46.177Z,4308.00
2018-04-28T09:01:46.149Z,4136.00
2018-04-28T09:02:46.139Z,4232.00
2018-04-28T09:03:46.181Z,4488.00
2018-04-28T09:04:46.194Z,4416.00
2018-04-28T09:05:46.213Z,4188.00
2018-04-28T09:06:46.203Z,4024.00
2018-04-28T09:07:46.216Z,4384.00
2018-04-28T09:08:46.285Z,4368.00
2018-04-28T09:09:46.267Z,4276.00
2018-04-28T09:10:46.284Z,4656.00
2018-04-28T09:11:46.301Z,5312.00
2018-04-28T09:12:46.302Z,5644.00
2018-04-28T09:13:46.316Z,6048.00
2018-04-28T09:14:46.331Z,6248.00
2018-04-28T09:15:46.346Z,6616.00
2018-04-28T09:16:46.362Z,6348.00
2018-04-28T09:17:46.378Z,5784.00
2018-04-28T09:18:46.401Z,5636.00
2018-04-28T09:19:46.433Z,5552.00
2018-04-28T09:20:46.438Z,6228.00
2018-04-28T09:21:46.460Z,5812.00
2018-04-28T09:22:46.467Z,5772.00
2018-04-28T09:23:46.492Z,5620.00
2018-04-28T09:24:46.508Z,5784.00
2018-04-28T09:25:46.525Z,5496.00
2018-04-28T09:26:46.538Z,5684.00
2018-04-28T09:27:46.560Z,4892.00
2018-04-28T09:28:46.582Z,4644.00
2018-04-28T09:29:46.599Z,6168.00
2018-04-28T09:30:46.645Z,5580.00
2018-04-28T09:31:46.629Z,5924.00
2018-04-28T09:32:46.654Z,5424.00
2018-04-28T09:33:46.664Z,5284.00
2018-04-28T09:34:46.699Z,4808.00
2018-04-28T09:35:46.698Z,4904.00
2018-04-28T09:36:46.717Z,5104.00
2018-04-28T09:37:46.735Z,4980.00
2018-04-28T09:38:46.752Z,5096.00
2018-04-28T09:39:46.771Z,4660.00
2018-04-28T09:40:46.789Z,4932.00
2018-04-28T09:41:46.808Z,4760.00
2018-04-28T09:42:46.882Z,5848.00
2018-04-28T09:43:46.847Z,5052.00
2018-04-28T09:44:46.860Z,5660.00
2018-04-28T09:45:46.880Z,5452.00
2018-04-28T09:46:46.905Z,4944.00
2018-04-28T09:47:46.915Z,4584.00
2018-04-28T09:48:46.943Z,4472.00
2018-04-28T09:49:46.955Z,4352.00
2018-04-28T09:50:47.272Z,4236.00
2018-04-28T09:51:46.985Z,4172.00
2018-04-28T09:52:47.007Z,4160.00
2018-04-28T09:53:47.022Z,4060.00
2018-04-28T09:54:47.040Z,3904.00
2018-04-28T09:55:47.058Z,3540.00
2018-04-28T09:56:47.077Z,3196.00
2018-04-28T09:57:47.095Z,2984.00
2018-04-28T09:58:47.125Z,2940.00
2018-04-28T09:59:47.138Z,2984.00
2018-04-28T10:00:47.146Z,2956.00
2018-04-28T10:01:47.168Z,2964.00
2018-04-28T10:02:47.207Z,2984.00
2018-04-28T10:03:47.210Z,2968.00
2018-04-28T10:04:47.223Z,2920.00
2018-04-28T10:05:47.248Z,2932.00
2018-04-28T10:06:47.355Z,2964.00
2018-04-28T10:07:47.271Z,3048.00
2018-04-28T10:08:47.291Z,3264.00
2018-04-28T10:09:47.313Z,3452.00
2018-04-28T10:10:47.338Z,3668.00
2018-04-28T10:11:47.351Z,3788.00
2018-04-28T10:12:47.400Z,3876.00
2018-04-28T10:13:47.380Z,3924.00
2018-04-28T10:14:47.422Z,4024.00
2018-04-28T10:15:47.419Z,4168.00
2018-04-28T10:16:47.447Z,4364.00
2018-04-28T10:17:47.452Z,4444.00
2018-04-28T10:18:47.474Z,4340.00
2018-04-28T10:19:47.485Z,4024.00
2018-04-28T10:20:47.508Z,3676.00
2018-04-28T10:21:47.528Z,3424.00
2018-04-28T10:22:47.541Z,3524.00
2018-04-28T10:23:47.606Z,3668.00
2018-04-28T10:24:47.573Z,3848.00
2018-04-28T10:25:47.593Z,3976.00
2018-04-28T10:26:47.607Z,3968.00
2018-04-28T10:27:47.627Z,3880.00
2018-04-28T10:28:47.642Z,3764.00
2018-04-28T10:29:47.667Z,3856.00
2018-04-28T10:30:47.756Z,4264.00
2018-04-28T10:31:47.699Z,4468.00
2018-04-28T10:32:47.735Z,4688.00
2018-04-28T10:33:48.715Z,4748.00
2018-04-28T10:34:47.803Z,4680.00
2018-04-28T10:35:47.767Z,4428.00
2018-04-28T10:36:47.788Z,4112.00
2018-04-28T10:37:50.548Z,3868.00
2018-04-28T10:38:47.822Z,3556.00
2018-04-28T10:39:47.840Z,3268.00
2018-04-28T10:40:47.854Z,3040.00
2018-04-28T10:41:47.875Z,2896.00
2018-04-28T10:42:47.894Z,2828.00
2018-04-28T10:43:47.910Z,2720.00
2018-04-28T10:44:47.928Z,2624.00
2018-04-28T10:45:47.948Z,2604.00
2018-04-28T10:46:47.963Z,2668.00
2018-04-28T10:47:47.977Z,2852.00
2018-04-28T10:48:47.999Z,3092.00
2018-04-28T10:49:48.018Z,3396.00
2018-04-28T10:50:48.066Z,3584.00
2018-04-28T10:51:48.052Z,3764.00
2018-04-28T10:52:48.074Z,3984.00
2018-04-28T10:53:48.160Z,4212.00
2018-04-28T10:54:48.102Z,4404.00
2018-04-28T10:55:48.132Z,4464.00
2018-04-28T10:56:48.140Z,4428.00
2018-04-28T10:57:48.157Z,4304.00
2018-04-28T10:58:48.171Z,4288.00
2018-04-28T10:59:48.287Z,4460.00
2018-04-28T11:00:48.206Z,4816.00
2018-04-28T11:01:48.229Z,5100.00
2018-04-28T11:02:48.243Z,5124.00
2018-04-28T11:03:48.264Z,5152.00
2018-04-28T11:04:48.279Z,5172.00
2018-04-28T11:05:48.314Z,5364.00
2018-04-28T11:06:48.320Z,5364.00
2018-04-28T11:07:48.332Z,5196.00
2018-04-28T11:08:48.434Z,4984.00
2018-04-28T11:09:48.458Z,4772.00
2018-04-28T11:10:48.405Z,4592.00
2018-04-28T11:11:48.412Z,4024.00
2018-04-28T11:12:48.442Z,3760.00
2018-04-28T11:13:48.558Z,3696.00
2018-04-28T11:14:48.516Z,3700.00
2018-04-28T11:15:48.479Z,3688.00
2018-04-28T11:16:48.574Z,3660.00
2018-04-28T11:17:49.118Z,3592.00
2018-04-28T11:18:48.682Z,3560.00
2018-04-28T11:19:48.715Z,3548.00
2018-04-28T11:20:48.664Z,3552.00
2018-04-28T11:21:48.780Z,3536.00
2018-04-28T11:22:48.608Z,3540.00
2018-04-28T11:23:48.631Z,3572.00
2018-04-28T11:24:48.638Z,3616.00
2018-04-28T11:25:48.661Z,3676.00
2018-04-28T11:26:48.688Z,3664.00
2018-04-28T11:27:48.689Z,3588.00
2018-04-28T11:28:48.717Z,3472.00
2018-04-28T11:29:48.735Z,3404.00
2018-04-28T11:30:48.748Z,3384.00
2018-04-28T11:31:48.758Z,3404.00
2018-04-28T11:32:48.781Z,3456.00
2018-04-28T11:33:48.796Z,3608.00
2018-04-28T11:34:48.814Z,3832.00
2018-04-28T11:35:49.561Z,4036.00
2018-04-28T11:36:48.856Z,4244.00
2018-04-28T11:37:48.871Z,4448.00
2018-04-28T11:38:48.891Z,4556.00
2018-04-28T11:39:48.906Z,4664.00
2018-04-28T11:40:48.965Z,4788.00
2018-04-28T11:41:48.936Z,4944.00
2018-04-28T11:42:48.958Z,5160.00
2018-04-28T11:43:48.975Z,5380.00
2018-04-28T11:44:49.027Z,5400.00
2018-04-28T11:45:49.025Z,5148.00
2018-04-28T11:46:49.025Z,4844.00
2018-04-28T11:47:49.048Z,4604.00
2018-04-28T11:48:49.061Z,4488.00
2018-04-28T11:49:49.443Z,4420.00
2018-04-28T11:50:49.195Z,4332.00
2018-04-28T11:51:49.214Z,4240.00
2018-04-28T11:52:49.138Z,4092.00
2018-04-28T11:53:49.192Z,3888.00
2018-04-28T11:54:49.248Z,3668.00
2018-04-28T11:55:49.189Z,3772.00
2018-04-28T11:56:49.218Z,3792.00
2018-04-28T11:57:49.984Z,3812.00
2018-04-28T11:58:49.242Z,3764.00
2018-04-28T11:59:49.374Z,3640.00
2018-04-28T12:00:49.275Z,3480.00
2018-04-28T12:01:49.371Z,3356.00
2018-04-28T12:02:49.309Z,3240.00
2018-04-28T12:03:49.338Z,3120.00
2018-04-28T12:04:49.349Z,3004.00
2018-04-28T12:05:49.411Z,2912.00
2018-04-28T12:06:49.379Z,2884.00
2018-04-28T12:07:49.402Z,2976.00
2018-04-28T12:08:49.534Z,3000.00
2018-04-28T12:09:49.828Z,3020.00
2018-04-28T12:10:49.513Z,2992.00
2018-04-28T12:11:49.487Z,2924.00
2018-04-28T12:12:49.526Z,2796.00
2018-04-28T12:13:49.517Z,2636.00
2018-04-28T12:14:49.526Z,2492.00
2018-04-28T12:15:49.593Z,2396.00
2018-04-28T12:16:49.709Z,2396.00
2018-04-28T12:17:49.618Z,2408.00
2018-04-28T12:18:49.606Z,2420.00
2018-04-28T12:19:49.647Z,2368.00
2018-04-28T12:20:49.635Z,2296.00
2018-04-28T12:21:49.700Z,2200.00
2018-04-28T12:22:49.835Z,2192.00
2018-04-28T12:23:49.717Z,2236.00
2018-04-28T12:24:49.861Z,2312.00
2018-04-28T12:25:49.715Z,2484.00
2018-04-28T12:26:49.738Z,2816.00
2018-04-28T12:27:49.827Z,3248.00
2018-04-28T12:28:49.771Z,3756.00
2018-04-28T12:29:49.866Z,4324.00
2018-04-28T12:30:49.804Z,4908.00
2018-04-28T12:31:51.095Z,5372.00
2018-04-28T12:32:50.628Z,5788.00